sensor_id;sensor_type;location;lat;lon;timestamp;P1;durP1;ratioP1;P2;durP2;ratioP2
75470;SDS011;64051;46.320;48.028;2022-10-04T00:01:30;6.70;;;2.97;;
75470;SDS011;64051;46.320;48.028;2022-10-04T00:04:12;6.20;;;2.95;;
75470;SDS011;64051;46.320;48.028;2022-10-04T00:06:56;6.35;;;3.08;;
75470;SDS011;64051;46.320;48.028;2022-10-04T00:09:31;7.38;;;3.30;;
75470;SDS011;64051;46.320;48.028;2022-10-04T00:12:00;6.15;;;3.25;;
75470;SDS011;64051;46.320;48.028;2022-10-04T00:14:31;6.97;;;3.20;;
75470;SDS011;64051;46.320;48.028;2022-10-04T00:17:11;6.75;;;3.20;;
75470;SDS011;64051;46.320;48.028;2022-10-04T00:19:41;5.60;;;3.10;;
75470;SDS011;64051;46.320;48.028;2022-10-04T00:22:13;5.82;;;3.10;;
75470;SDS011;64051;46.320;48.028;2022-10-04T00:27:29;5.03;;;2.83;;
75470;SDS011;64051;46.320;48.028;2022-10-04T00:38:12;6.70;;;2.90;;
75470;SDS011;64051;46.320;48.028;2022-10-04T00:46:00;6.68;;;3.00;;
75470;SDS011;64051;46.320;48.028;2022-10-04T00:48:42;5.97;;;2.75;;
75470;SDS011;64051;46.320;48.028;2022-10-04T00:51:11;6.28;;;3.10;;
75470;SDS011;64051;46.320;48.028;2022-10-04T00:54:02;6.28;;;3.08;;
75470;SDS011;64051;46.320;48.028;2022-10-04T00:59:16;6.40;;;2.95;;
75470;SDS011;64051;46.320;48.028;2022-10-04T01:05:08;8.63;;;3.05;;
75470;SDS011;64051;46.320;48.028;2022-10-04T01:07:49;7.00;;;3.33;;
75470;SDS011;64051;46.320;48.028;2022-10-04T01:10:21;6.70;;;3.50;;
75470;SDS011;64051;46.320;48.028;2022-10-04T01:15:39;6.55;;;3.00;;
75470;SDS011;64051;46.320;48.028;2022-10-04T01:18:08;6.38;;;3.10;;
75470;SDS011;64051;46.320;48.028;2022-10-04T01:20:53;7.10;;;2.88;;
75470;SDS011;64051;46.320;48.028;2022-10-04T01:23:48;5.68;;;2.88;;
75470;SDS011;64051;46.320;48.028;2022-10-04T01:31:30;6.72;;;3.03;;
75470;SDS011;64051;46.320;48.028;2022-10-04T01:33:58;6.00;;;3.35;;
75470;SDS011;64051;46.320;48.028;2022-10-04T01:36:25;6.22;;;2.95;;
75470;SDS011;64051;46.320;48.028;2022-10-04T01:38:53;6.13;;;3.03;;
75470;SDS011;64051;46.320;48.028;2022-10-04T01:44:56;5.18;;;2.88;;
75470;SDS011;64051;46.320;48.028;2022-10-04T01:46:58;6.40;;;3.50;;
75470;SDS011;64051;46.320;48.028;2022-10-04T01:49:30;6.82;;;3.30;;
75470;SDS011;64051;46.320;48.028;2022-10-04T01:52:00;6.78;;;3.50;;
75470;SDS011;64051;46.320;48.028;2022-10-04T01:54:33;6.68;;;3.40;;
75470;SDS011;64051;46.320;48.028;2022-10-04T02:02:53;6.13;;;3.10;;
75470;SDS011;64051;46.320;48.028;2022-10-04T02:05:47;7.60;;;3.33;;
75470;SDS011;64051;46.320;48.028;2022-10-04T02:08:22;6.85;;;3.42;;
75470;SDS011;64051;46.320;48.028;2022-10-04T02:10:53;5.28;;;3.03;;
75470;SDS011;64051;46.320;48.028;2022-10-04T02:13:20;6.22;;;3.38;;
75470;SDS011;64051;46.320;48.028;2022-10-04T02:15:52;6.20;;;3.40;;
75470;SDS011;64051;46.320;48.028;2022-10-04T02:18:19;8.18;;;3.70;;
75470;SDS011;64051;46.320;48.028;2022-10-04T02:20:48;7.15;;;3.38;;
75470;SDS011;64051;46.320;48.028;2022-10-04T02:23:17;8.48;;;3.80;;
75470;SDS011;64051;46.320;48.028;2022-10-04T02:25:45;7.80;;;3.80;;
75470;SDS011;64051;46.320;48.028;2022-10-04T02:28:11;6.47;;;3.50;;
75470;SDS011;64051;46.320;48.028;2022-10-04T02:30:41;7.63;;;3.42;;
75470;SDS011;64051;46.320;48.028;2022-10-04T02:33:29;6.43;;;3.58;;
75470;SDS011;64051;46.320;48.028;2022-10-04T02:35:56;7.20;;;3.70;;
75470;SDS011;64051;46.320;48.028;2022-10-04T02:38:31;6.57;;;3.63;;
75470;SDS011;64051;46.320;48.028;2022-10-04T02:41:02;8.00;;;3.55;;
75470;SDS011;64051;46.320;48.028;2022-10-04T02:48:55;7.38;;;3.53;;
75470;SDS011;64051;46.320;48.028;2022-10-04T02:56:36;6.40;;;3.40;;
75470;SDS011;64051;46.320;48.028;2022-10-04T02:59:05;5.93;;;3.38;;
75470;SDS011;64051;46.320;48.028;2022-10-04T03:01:45;6.93;;;3.20;;
75470;SDS011;64051;46.320;48.028;2022-10-04T03:04:24;5.95;;;3.35;;
75470;SDS011;64051;46.320;48.028;2022-10-04T03:06:53;7.45;;;3.55;;
75470;SDS011;64051;46.320;48.028;2022-10-04T03:09:21;6.57;;;3.53;;
75470;SDS011;64051;46.320;48.028;2022-10-04T03:11:49;6.50;;;3.17;;
75470;SDS011;64051;46.320;48.028;2022-10-04T03:14:17;6.95;;;3.33;;
75470;SDS011;64051;46.320;48.028;2022-10-04T03:16:46;7.00;;;3.05;;
75470;SDS011;64051;46.320;48.028;2022-10-04T03:19:18;5.43;;;2.97;;
75470;SDS011;64051;46.320;48.028;2022-10-04T03:21:48;6.25;;;3.20;;
75470;SDS011;64051;46.320;48.028;2022-10-04T03:24:21;8.60;;;3.70;;
75470;SDS011;64051;46.320;48.028;2022-10-04T03:26:53;7.90;;;3.28;;
75470;SDS011;64051;46.320;48.028;2022-10-04T03:29:22;8.55;;;3.42;;
75470;SDS011;64051;46.320;48.028;2022-10-04T03:31:51;9.05;;;3.45;;
75470;SDS011;64051;46.320;48.028;2022-10-04T03:36:51;8.32;;;2.90;;
75470;SDS011;64051;46.320;48.028;2022-10-04T03:42:01;8.50;;;3.25;;
75470;SDS011;64051;46.320;48.028;2022-10-04T03:44:32;7.90;;;3.20;;
75470;SDS011;64051;46.320;48.028;2022-10-04T03:46:59;6.07;;;2.70;;
75470;SDS011;64051;46.320;48.028;2022-10-04T03:49:32;8.00;;;2.95;;
75470;SDS011;64051;46.320;48.028;2022-10-04T03:52:01;5.78;;;3.03;;
75470;SDS011;64051;46.320;48.028;2022-10-04T03:54:29;4.85;;;2.70;;
75470;SDS011;64051;46.320;48.028;2022-10-04T03:56:56;4.88;;;2.58;;
75470;SDS011;64051;46.320;48.028;2022-10-04T03:59:24;6.40;;;2.75;;
75470;SDS011;64051;46.320;48.028;2022-10-04T04:02:03;5.88;;;2.50;;
75470;SDS011;64051;46.320;48.028;2022-10-04T04:04:39;6.68;;;2.80;;
75470;SDS011;64051;46.320;48.028;2022-10-04T04:10:12;6.07;;;2.92;;
75470;SDS011;64051;46.320;48.028;2022-10-04T04:15:44;5.15;;;2.60;;
75470;SDS011;64051;46.320;48.028;2022-10-04T04:18:21;6.82;;;2.88;;
75470;SDS011;64051;46.320;48.028;2022-10-04T04:20:49;6.70;;;2.95;;
75470;SDS011;64051;46.320;48.028;2022-10-04T04:23:53;6.18;;;2.88;;
75470;SDS011;64051;46.320;48.028;2022-10-04T04:26:16;6.32;;;2.88;;
75470;SDS011;64051;46.320;48.028;2022-10-04T04:29:07;6.57;;;2.78;;
75470;SDS011;64051;46.320;48.028;2022-10-04T04:32:07;6.10;;;3.22;;
75470;SDS011;64051;46.320;48.028;2022-10-04T04:34:48;7.43;;;3.00;;
75470;SDS011;64051;46.320;48.028;2022-10-04T04:37:25;5.53;;;3.00;;
75470;SDS011;64051;46.320;48.028;2022-10-04T04:39:51;5.57;;;2.72;;
75470;SDS011;64051;46.320;48.028;2022-10-04T04:42:28;6.05;;;2.90;;
75470;SDS011;64051;46.320;48.028;2022-10-04T04:44:59;5.57;;;2.60;;
75470;SDS011;64051;46.320;48.028;2022-10-04T04:53:06;25.77;;;5.03;;
75470;SDS011;64051;46.320;48.028;2022-10-04T04:55:38;16.38;;;3.40;;
75470;SDS011;64051;46.320;48.028;2022-10-04T04:58:05;9.05;;;3.00;;
75470;SDS011;64051;46.320;48.028;2022-10-04T05:00:35;12.20;;;3.20;;
75470;SDS011;64051;46.320;48.028;2022-10-04T05:03:05;7.25;;;3.00;;
75470;SDS011;64051;46.320;48.028;2022-10-04T05:05:43;9.75;;;3.20;;
75470;SDS011;64051;46.320;48.028;2022-10-04T05:08:14;9.95;;;3.65;;
75470;SDS011;64051;46.320;48.028;2022-10-04T05:13:32;8.02;;;3.15;;
75470;SDS011;64051;46.320;48.028;2022-10-04T05:16:13;9.40;;;2.75;;
75470;SDS011;64051;46.320;48.028;2022-10-04T05:18:52;8.40;;;3.40;;
75470;SDS011;64051;46.320;48.028;2022-10-04T05:21:26;8.02;;;2.80;;
75470;SDS011;64051;46.320;48.028;2022-10-04T05:23:56;8.05;;;3.28;;
75470;SDS011;64051;46.320;48.028;2022-10-04T05:26:27;9.23;;;2.80;;
75470;SDS011;64051;46.320;48.028;2022-10-04T05:28:58;7.22;;;2.97;;
75470;SDS011;64051;46.320;48.028;2022-10-04T05:34:16;8.82;;;2.90;;
75470;SDS011;64051;46.320;48.028;2022-10-04T05:42:43;6.53;;;2.60;;
75470;SDS011;64051;46.320;48.028;2022-10-04T05:47:53;8.30;;;2.55;;
75470;SDS011;64051;46.320;48.028;2022-10-04T05:50:25;7.40;;;2.63;;
75470;SDS011;64051;46.320;48.028;2022-10-04T05:53:25;5.90;;;2.85;;
75470;SDS011;64051;46.320;48.028;2022-10-04T06:01:54;7.15;;;3.17;;
75470;SDS011;64051;46.320;48.028;2022-10-04T06:04:36;6.85;;;3.00;;
75470;SDS011;64051;46.320;48.028;2022-10-04T06:07:18;4.88;;;2.70;;
75470;SDS011;64051;46.320;48.028;2022-10-04T06:09:50;5.95;;;2.70;;
75470;SDS011;64051;46.320;48.028;2022-10-04T06:12:40;7.28;;;2.72;;
75470;SDS011;64051;46.320;48.028;2022-10-04T06:26:38;7.25;;;3.10;;
75470;SDS011;64051;46.320;48.028;2022-10-04T06:29:13;6.63;;;2.97;;
75470;SDS011;64051;46.320;48.028;2022-10-04T06:34:49;6.57;;;2.65;;
75470;SDS011;64051;46.320;48.028;2022-10-04T06:37:40;6.00;;;2.70;;
75470;SDS011;64051;46.320;48.028;2022-10-04T06:48:28;3.65;;;2.10;;
75470;SDS011;64051;46.320;48.028;2022-10-04T06:51:25;7.80;;;2.72;;
75470;SDS011;64051;46.320;48.028;2022-10-04T07:00:35;8.05;;;2.47;;
75470;SDS011;64051;46.320;48.028;2022-10-04T07:03:16;4.80;;;2.45;;
75470;SDS011;64051;46.320;48.028;2022-10-04T07:06:01;4.70;;;2.40;;
75470;SDS011;64051;46.320;48.028;2022-10-04T07:11:19;5.22;;;2.33;;
75470;SDS011;64051;46.320;48.028;2022-10-04T07:14:09;8.48;;;2.40;;
75470;SDS011;64051;46.320;48.028;2022-10-04T07:16:42;6.82;;;2.30;;
75470;SDS011;64051;46.320;48.028;2022-10-04T07:25:21;9.75;;;2.67;;
75470;SDS011;64051;46.320;48.028;2022-10-04T07:28:03;6.30;;;2.40;;
75470;SDS011;64051;46.320;48.028;2022-10-04T07:33:20;6.45;;;2.50;;
75470;SDS011;64051;46.320;48.028;2022-10-04T07:35:51;8.18;;;2.70;;
75470;SDS011;64051;46.320;48.028;2022-10-04T07:38:28;7.28;;;2.67;;
75470;SDS011;64051;46.320;48.028;2022-10-04T07:44:04;7.82;;;2.58;;
75470;SDS011;64051;46.320;48.028;2022-10-04T07:47:40;5.57;;;2.50;;
75470;SDS011;64051;46.320;48.028;2022-10-04T07:49:46;7.65;;;2.88;;
75470;SDS011;64051;46.320;48.028;2022-10-04T07:52:19;6.43;;;2.60;;
75470;SDS011;64051;46.320;48.028;2022-10-04T07:58:17;5.38;;;2.92;;
75470;SDS011;64051;46.320;48.028;2022-10-04T08:00:51;7.85;;;2.60;;
75470;SDS011;64051;46.320;48.028;2022-10-04T08:03:33;5.70;;;2.83;;
75470;SDS011;64051;46.320;48.028;2022-10-04T08:09:22;5.68;;;2.50;;
75470;SDS011;64051;46.320;48.028;2022-10-04T08:20:31;6.07;;;2.50;;
75470;SDS011;64051;46.320;48.028;2022-10-04T08:23:19;8.15;;;2.60;;
75470;SDS011;64051;46.320;48.028;2022-10-04T08:29:33;7.65;;;2.42;;
75470;SDS011;64051;46.320;48.028;2022-10-04T08:37:32;7.45;;;2.30;;
75470;SDS011;64051;46.320;48.028;2022-10-04T08:40:51;4.90;;;2.25;;
75470;SDS011;64051;46.320;48.028;2022-10-04T09:00:18;8.57;;;2.60;;
75470;SDS011;64051;46.320;48.028;2022-10-04T09:14:46;7.55;;;2.80;;
75470;SDS011;64051;46.320;48.028;2022-10-04T09:20:28;6.97;;;2.55;;
75470;SDS011;64051;46.320;48.028;2022-10-04T09:34:45;6.63;;;2.65;;
75470;SDS011;64051;46.320;48.028;2022-10-04T09:37:31;7.00;;;2.50;;
75470;SDS011;64051;46.320;48.028;2022-10-04T09:45:57;6.68;;;2.80;;
75470;SDS011;64051;46.320;48.028;2022-10-04T09:51:22;7.30;;;2.50;;
75470;SDS011;64051;46.320;48.028;2022-10-04T09:54:31;6.38;;;2.40;;
75470;SDS011;64051;46.320;48.028;2022-10-04T10:00:14;5.70;;;2.50;;
75470;SDS011;64051;46.320;48.028;2022-10-04T10:03:10;6.03;;;2.60;;
75470;SDS011;64051;46.320;48.028;2022-10-04T10:06:10;8.02;;;2.92;;
75470;SDS011;64051;46.320;48.028;2022-10-04T10:09:20;6.72;;;2.70;;
75470;SDS011;64051;46.320;48.028;2022-10-04T10:18:47;5.47;;;2.50;;
75470;SDS011;64051;46.320;48.028;2022-10-04T10:21:39;8.23;;;2.42;;
75470;SDS011;64051;46.320;48.028;2022-10-04T10:24:25;5.95;;;2.47;;
75470;SDS011;64051;46.320;48.028;2022-10-04T10:30:02;8.68;;;2.75;;
75470;SDS011;64051;46.320;48.028;2022-10-04T10:33:40;7.75;;;2.70;;
